This is the latest recevied weather packets stored in our database for station/object OM6ACB-6. If no packets are shown the sender has not sent any weather packets the latest 10 day(s).
| Time | Temp. | Humidity | Pressure | Rain* | Wind** | Luminosity | Snow |
|---|---|---|---|---|---|---|---|
| 1777878842 | 19.44° C | 23% | 1021.9 hPa | 0 mm | - | - | - |
| 1777878242 | 17.78° C | 24% | 1021.8 hPa | 0 mm | - | - | - |
| 1777877641 | 16.67° C | 24% | 1021.7 hPa | 0 mm | - | - | - |
| 1777877041 | 15.56° C | 25% | 1021.5 hPa | 0 mm | - | - | - |
| 1777876441 | 16.67° C | 24% | 1021.6 hPa | 0 mm | - | - | - |
| 1777875840 | 13.89° C | 26% | 1021.4 hPa | 0 mm | - | - | - |
| 1777875240 | 13.33° C | 26% | 1021.3 hPa | 0 mm | - | - | - |
| 1777874640 | 13.33° C | 26% | 1021.5 hPa | 0 mm | - | - | - |
| 1777874040 | 11.11° C | 27% | 1021 hPa | 0 mm | - | - | - |
| 1777873439 | 11.67° C | 27% | 1021.2 hPa | 0 mm | - | - | - |
| 1777872839 | 11.67° C | 27% | 1021.2 hPa | 0 mm | - | - | - |
| 1777872239 | 10° C | 27% | 1020.8 hPa | 0 mm | - | - | - |
| 1777871638 | 8.33° C | 28% | 1020.7 hPa | 0 mm | - | - | - |
| 1777871038 | 8.89° C | 28% | 1020.7 hPa | 0 mm | - | - | - |
| 1777870438 | 6.67° C | 29% | 1020.2 hPa | 0 mm | - | - | - |
| 1777869837 | 6.67° C | 29% | 1020 hPa | 0 mm | - | - | - |
| 1777869237 | 5.56° C | 30% | 1019.9 hPa | 0 mm | - | - | - |
| 1777868637 | 5° C | 30% | 1019.8 hPa | 0 mm | - | - | - |
| 1777868037 | 3.89° C | 31% | 1019.6 hPa | 0 mm | - | - | - |
| 1777867436 | 3.33° C | 31% | 1019.4 hPa | 0 mm | - | - | - |
| 1777866836 | 2.22° C | 33% | 1019.2 hPa | 0 mm | - | - | - |
| 1777866236 | 0.56° C | 59% | 1018.9 hPa | 0 mm | - | - | - |
| 1777865635 | 0° C | 63% | 1018.7 hPa | 0 mm | - | - | - |
| 1777865035 | -0.56° C | 62% | 1018.6 hPa | 0 mm | - | - | - |
| 1777864435 | -0.56° C | 61% | 1018.6 hPa | 0 mm | - | - | - |
* Rain latest hour (hover to see other rain measurements)
** Current wind speed in m/s (hover to see current wind gust speed)